sensor_id;sensor_type;location;lat;lon;timestamp;P1;durP1;ratioP1;P2;durP2;ratioP2
29574;SDS011;16507;51.046;6.406;2023-07-20T00:02:15;6.43;;;3.85;;
29574;SDS011;16507;51.046;6.406;2023-07-20T00:04:41;3.97;;;3.28;;
29574;SDS011;16507;51.046;6.406;2023-07-20T00:07:06;8.70;;;3.58;;
29574;SDS011;16507;51.046;6.406;2023-07-20T00:09:32;9.63;;;3.85;;
29574;SDS011;16507;51.046;6.406;2023-07-20T00:11:58;6.35;;;4.03;;
29574;SDS011;16507;51.046;6.406;2023-07-20T00:14:25;3.60;;;3.30;;
29574;SDS011;16507;51.046;6.406;2023-07-20T00:16:51;6.65;;;3.38;;
29574;SDS011;16507;51.046;6.406;2023-07-20T00:19:24;6.70;;;3.60;;
29574;SDS011;16507;51.046;6.406;2023-07-20T00:21:50;6.70;;;3.35;;
29574;SDS011;16507;51.046;6.406;2023-07-20T00:24:16;4.95;;;3.08;;
29574;SDS011;16507;51.046;6.406;2023-07-20T00:26:43;5.05;;;2.97;;
29574;SDS011;16507;51.046;6.406;2023-07-20T00:29:09;10.57;;;3.08;;
29574;SDS011;16507;51.046;6.406;2023-07-20T00:31:35;6.38;;;3.63;;
29574;SDS011;16507;51.046;6.406;2023-07-20T00:34:05;4.05;;;2.55;;
29574;SDS011;16507;51.046;6.406;2023-07-20T00:36:32;4.43;;;2.85;;
29574;SDS011;16507;51.046;6.406;2023-07-20T00:38:57;2.97;;;2.60;;
29574;SDS011;16507;51.046;6.406;2023-07-20T00:41:23;4.85;;;2.50;;
29574;SDS011;16507;51.046;6.406;2023-07-20T00:43:49;5.45;;;2.95;;
29574;SDS011;16507;51.046;6.406;2023-07-20T00:46:15;3.42;;;2.50;;
29574;SDS011;16507;51.046;6.406;2023-07-20T00:48:41;3.53;;;2.97;;
29574;SDS011;16507;51.046;6.406;2023-07-20T00:51:07;3.47;;;2.75;;
29574;SDS011;16507;51.046;6.406;2023-07-20T00:53:34;8.05;;;2.88;;
29574;SDS011;16507;51.046;6.406;2023-07-20T00:56:00;5.60;;;2.50;;
29574;SDS011;16507;51.046;6.406;2023-07-20T00:58:25;2.70;;;2.17;;
29574;SDS011;16507;51.046;6.406;2023-07-20T01:00:51;4.03;;;2.50;;
29574;SDS011;16507;51.046;6.406;2023-07-20T01:03:17;2.53;;;2.20;;
29574;SDS011;16507;51.046;6.406;2023-07-20T01:05:51;2.63;;;2.42;;
29574;SDS011;16507;51.046;6.406;2023-07-20T01:08:29;5.28;;;2.40;;
29574;SDS011;16507;51.046;6.406;2023-07-20T01:11:07;3.35;;;2.40;;
29574;SDS011;16507;51.046;6.406;2023-07-20T01:13:45;6.28;;;2.40;;
29574;SDS011;16507;51.046;6.406;2023-07-20T01:16:11;4.57;;;2.25;;
29574;SDS011;16507;51.046;6.406;2023-07-20T01:18:36;2.90;;;2.15;;
29574;SDS011;16507;51.046;6.406;2023-07-20T01:21:06;2.95;;;2.67;;
29574;SDS011;16507;51.046;6.406;2023-07-20T01:26:38;3.50;;;2.92;;
29574;SDS011;16507;51.046;6.406;2023-07-20T01:32:13;6.38;;;3.28;;
29574;SDS011;16507;51.046;6.406;2023-07-20T01:34:41;3.88;;;2.97;;
29574;SDS011;16507;51.046;6.406;2023-07-20T01:37:09;5.80;;;3.10;;
29574;SDS011;16507;51.046;6.406;2023-07-20T01:39:36;4.28;;;3.05;;
29574;SDS011;16507;51.046;6.406;2023-07-20T01:42:04;3.53;;;3.08;;
29574;SDS011;16507;51.046;6.406;2023-07-20T01:44:30;6.55;;;3.50;;
29574;SDS011;16507;51.046;6.406;2023-07-20T01:46:55;4.90;;;3.20;;
29574;SDS011;16507;51.046;6.406;2023-07-20T01:49:21;3.97;;;3.10;;
29574;SDS011;16507;51.046;6.406;2023-07-20T01:51:47;4.28;;;3.22;;
29574;SDS011;16507;51.046;6.406;2023-07-20T01:54:12;3.92;;;3.28;;
29574;SDS011;16507;51.046;6.406;2023-07-20T01:56:38;5.20;;;3.60;;
29574;SDS011;16507;51.046;6.406;2023-07-20T01:59:03;5.65;;;3.63;;
29574;SDS011;16507;51.046;6.406;2023-07-20T02:01:29;6.03;;;3.78;;
29574;SDS011;16507;51.046;6.406;2023-07-20T02:03:55;7.00;;;3.65;;
29574;SDS011;16507;51.046;6.406;2023-07-20T02:06:21;5.45;;;3.65;;
29574;SDS011;16507;51.046;6.406;2023-07-20T02:08:46;7.53;;;3.65;;
29574;SDS011;16507;51.046;6.406;2023-07-20T02:11:12;4.88;;;4.05;;
29574;SDS011;16507;51.046;6.406;2023-07-20T02:13:37;6.15;;;4.00;;
29574;SDS011;16507;51.046;6.406;2023-07-20T02:16:03;5.20;;;3.90;;
29574;SDS011;16507;51.046;6.406;2023-07-20T02:18:29;9.68;;;4.13;;
29574;SDS011;16507;51.046;6.406;2023-07-20T02:20:55;3.78;;;3.45;;
29574;SDS011;16507;51.046;6.406;2023-07-20T02:23:20;4.15;;;3.75;;
29574;SDS011;16507;51.046;6.406;2023-07-20T02:25:46;4.82;;;3.92;;
29574;SDS011;16507;51.046;6.406;2023-07-20T02:28:14;5.35;;;3.90;;
29574;SDS011;16507;51.046;6.406;2023-07-20T02:30:40;5.40;;;4.00;;
29574;SDS011;16507;51.046;6.406;2023-07-20T02:33:06;5.78;;;3.75;;
29574;SDS011;16507;51.046;6.406;2023-07-20T02:35:32;6.40;;;3.90;;
29574;SDS011;16507;51.046;6.406;2023-07-20T02:37:58;6.20;;;3.40;;
29574;SDS011;16507;51.046;6.406;2023-07-20T02:40:23;5.60;;;3.53;;
29574;SDS011;16507;51.046;6.406;2023-07-20T02:42:49;8.30;;;3.78;;
29574;SDS011;16507;51.046;6.406;2023-07-20T02:45:15;3.80;;;3.50;;
29574;SDS011;16507;51.046;6.406;2023-07-20T02:47:41;13.48;;;4.43;;
29574;SDS011;16507;51.046;6.406;2023-07-20T02:50:07;9.90;;;3.88;;
29574;SDS011;16507;51.046;6.406;2023-07-20T02:52:33;5.20;;;3.60;;
29574;SDS011;16507;51.046;6.406;2023-07-20T02:54:59;5.18;;;4.10;;
29574;SDS011;16507;51.046;6.406;2023-07-20T02:57:25;5.03;;;3.92;;
29574;SDS011;16507;51.046;6.406;2023-07-20T02:59:50;9.00;;;3.75;;
29574;SDS011;16507;51.046;6.406;2023-07-20T03:02:16;5.65;;;4.05;;
29574;SDS011;16507;51.046;6.406;2023-07-20T03:04:41;9.13;;;4.03;;
29574;SDS011;16507;51.046;6.406;2023-07-20T03:07:07;8.98;;;3.90;;
29574;SDS011;16507;51.046;6.406;2023-07-20T03:09:33;7.65;;;3.88;;
29574;SDS011;16507;51.046;6.406;2023-07-20T03:11:58;10.52;;;4.22;;
29574;SDS011;16507;51.046;6.406;2023-07-20T03:14:24;6.47;;;3.58;;
29574;SDS011;16507;51.046;6.406;2023-07-20T03:16:50;9.27;;;4.63;;
29574;SDS011;16507;51.046;6.406;2023-07-20T03:19:15;8.20;;;3.97;;
29574;SDS011;16507;51.046;6.406;2023-07-20T03:21:41;6.53;;;3.78;;
29574;SDS011;16507;51.046;6.406;2023-07-20T03:24:07;6.55;;;3.88;;
29574;SDS011;16507;51.046;6.406;2023-07-20T03:26:33;10.77;;;3.97;;
29574;SDS011;16507;51.046;6.406;2023-07-20T03:29:00;5.90;;;3.95;;
29574;SDS011;16507;51.046;6.406;2023-07-20T03:31:25;6.13;;;3.72;;
29574;SDS011;16507;51.046;6.406;2023-07-20T03:33:51;44.80;;;5.03;;
29574;SDS011;16507;51.046;6.406;2023-07-20T03:36:17;4.30;;;3.90;;
29574;SDS011;16507;51.046;6.406;2023-07-20T03:38:43;8.45;;;3.90;;
29574;SDS011;16507;51.046;6.406;2023-07-20T03:41:08;4.85;;;3.25;;
29574;SDS011;16507;51.046;6.406;2023-07-20T03:43:34;7.68;;;4.25;;
29574;SDS011;16507;51.046;6.406;2023-07-20T03:46:00;8.07;;;4.18;;
29574;SDS011;16507;51.046;6.406;2023-07-20T03:48:26;11.85;;;4.03;;
29574;SDS011;16507;51.046;6.406;2023-07-20T03:50:52;7.60;;;4.32;;
29574;SDS011;16507;51.046;6.406;2023-07-20T03:53:19;10.15;;;4.25;;
29574;SDS011;16507;51.046;6.406;2023-07-20T03:55:45;7.82;;;4.47;;
29574;SDS011;16507;51.046;6.406;2023-07-20T03:58:11;6.90;;;4.47;;
29574;SDS011;16507;51.046;6.406;2023-07-20T04:00:38;11.13;;;4.93;;
29574;SDS011;16507;51.046;6.406;2023-07-20T04:03:04;9.30;;;4.35;;
29574;SDS011;16507;51.046;6.406;2023-07-20T04:05:30;9.75;;;4.78;;
29574;SDS011;16507;51.046;6.406;2023-07-20T04:07:55;6.50;;;4.43;;
29574;SDS011;16507;51.046;6.406;2023-07-20T04:10:21;13.70;;;5.10;;
29574;SDS011;16507;51.046;6.406;2023-07-20T04:12:47;9.23;;;4.50;;
29574;SDS011;16507;51.046;6.406;2023-07-20T04:15:13;7.22;;;4.60;;
29574;SDS011;16507;51.046;6.406;2023-07-20T04:17:39;5.95;;;4.72;;
29574;SDS011;16507;51.046;6.406;2023-07-20T04:20:05;5.00;;;4.40;;
29574;SDS011;16507;51.046;6.406;2023-07-20T04:22:32;15.45;;;5.03;;
29574;SDS011;16507;51.046;6.406;2023-07-20T04:24:58;10.60;;;5.10;;
29574;SDS011;16507;51.046;6.406;2023-07-20T04:27:23;8.23;;;4.88;;
29574;SDS011;16507;51.046;6.406;2023-07-20T04:29:49;8.23;;;4.97;;
29574;SDS011;16507;51.046;6.406;2023-07-20T04:32:15;10.63;;;4.80;;
29574;SDS011;16507;51.046;6.406;2023-07-20T04:34:40;7.88;;;5.47;;
29574;SDS011;16507;51.046;6.406;2023-07-20T04:37:07;9.27;;;6.05;;
29574;SDS011;16507;51.046;6.406;2023-07-20T04:39:32;11.48;;;5.40;;
29574;SDS011;16507;51.046;6.406;2023-07-20T04:41:58;5.38;;;4.93;;
29574;SDS011;16507;51.046;6.406;2023-07-20T04:44:23;8.23;;;5.18;;
29574;SDS011;16507;51.046;6.406;2023-07-20T04:46:49;8.25;;;5.13;;
29574;SDS011;16507;51.046;6.406;2023-07-20T04:49:15;17.17;;;5.68;;
29574;SDS011;16507;51.046;6.406;2023-07-20T04:51:40;7.22;;;5.35;;
29574;SDS011;16507;51.046;6.406;2023-07-20T04:54:06;9.65;;;5.05;;
29574;SDS011;16507;51.046;6.406;2023-07-20T04:56:32;7.25;;;5.45;;
29574;SDS011;16507;51.046;6.406;2023-07-20T04:58:58;9.98;;;6.15;;
29574;SDS011;16507;51.046;6.406;2023-07-20T05:01:24;10.77;;;6.15;;
29574;SDS011;16507;51.046;6.406;2023-07-20T05:03:49;11.10;;;6.20;;
29574;SDS011;16507;51.046;6.406;2023-07-20T05:06:15;11.27;;;6.85;;
29574;SDS011;16507;51.046;6.406;2023-07-20T05:08:41;9.18;;;6.45;;
29574;SDS011;16507;51.046;6.406;2023-07-20T05:11:07;8.32;;;6.70;;
29574;SDS011;16507;51.046;6.406;2023-07-20T05:13:33;9.10;;;6.38;;
29574;SDS011;16507;51.046;6.406;2023-07-20T05:15:58;9.23;;;7.30;;
29574;SDS011;16507;51.046;6.406;2023-07-20T05:18:24;10.48;;;7.55;;
29574;SDS011;16507;51.046;6.406;2023-07-20T05:20:50;10.73;;;7.60;;
29574;SDS011;16507;51.046;6.406;2023-07-20T05:23:17;10.95;;;7.97;;
29574;SDS011;16507;51.046;6.406;2023-07-20T05:25:44;16.33;;;8.23;;
29574;SDS011;16507;51.046;6.406;2023-07-20T05:28:10;9.60;;;8.40;;
29574;SDS011;16507;51.046;6.406;2023-07-20T05:30:36;13.40;;;9.02;;
29574;SDS011;16507;51.046;6.406;2023-07-20T05:33:01;14.90;;;10.00;;
29574;SDS011;16507;51.046;6.406;2023-07-20T05:35:27;13.88;;;9.85;;
29574;SDS011;16507;51.046;6.406;2023-07-20T05:37:52;19.50;;;12.57;;
29574;SDS011;16507;51.046;6.406;2023-07-20T05:40:18;17.40;;;13.05;;
29574;SDS011;16507;51.046;6.406;2023-07-20T05:42:45;24.48;;;13.15;;
29574;SDS011;16507;51.046;6.406;2023-07-20T05:45:12;14.02;;;11.35;;
29574;SDS011;16507;51.046;6.406;2023-07-20T05:47:38;13.18;;;11.75;;
29574;SDS011;16507;51.046;6.406;2023-07-20T05:50:03;18.45;;;13.88;;
29574;SDS011;16507;51.046;6.406;2023-07-20T05:52:29;17.95;;;14.20;;
29574;SDS011;16507;51.046;6.406;2023-07-20T05:54:55;14.95;;;13.52;;
29574;SDS011;16507;51.046;6.406;2023-07-20T05:57:21;20.75;;;14.32;;
29574;SDS011;16507;51.046;6.406;2023-07-20T05:59:46;22.58;;;14.15;;
29574;SDS011;16507;51.046;6.406;2023-07-20T06:02:12;18.13;;;14.63;;
29574;SDS011;16507;51.046;6.406;2023-07-20T06:04:38;18.02;;;12.93;;
29574;SDS011;16507;51.046;6.406;2023-07-20T06:07:04;18.15;;;12.45;;
29574;SDS011;16507;51.046;6.406;2023-07-20T06:09:30;13.50;;;11.10;;
29574;SDS011;16507;51.046;6.406;2023-07-20T06:11:56;15.18;;;10.73;;
29574;SDS011;16507;51.046;6.406;2023-07-20T06:14:22;10.55;;;9.40;;
29574;SDS011;16507;51.046;6.406;2023-07-20T06:16:47;12.90;;;9.90;;
29574;SDS011;16507;51.046;6.406;2023-07-20T06:19:13;13.63;;;10.52;;
29574;SDS011;16507;51.046;6.406;2023-07-20T06:21:39;13.30;;;9.20;;
29574;SDS011;16507;51.046;6.406;2023-07-20T06:24:04;11.63;;;8.95;;
29574;SDS011;16507;51.046;6.406;2023-07-20T06:26:30;10.93;;;9.80;;
29574;SDS011;16507;51.046;6.406;2023-07-20T06:28:56;10.73;;;9.77;;
29574;SDS011;16507;51.046;6.406;2023-07-20T06:31:22;10.05;;;8.75;;
29574;SDS011;16507;51.046;6.406;2023-07-20T06:33:47;9.27;;;8.45;;
29574;SDS011;16507;51.046;6.406;2023-07-20T06:36:13;12.15;;;8.73;;
29574;SDS011;16507;51.046;6.406;2023-07-20T06:38:41;11.93;;;9.43;;
29574;SDS011;16507;51.046;6.406;2023-07-20T06:41:06;13.55;;;9.93;;
29574;SDS011;16507;51.046;6.406;2023-07-20T06:43:32;10.45;;;8.50;;
29574;SDS011;16507;51.046;6.406;2023-07-20T06:45:57;9.85;;;8.95;;
29574;SDS011;16507;51.046;6.406;2023-07-20T06:48:23;10.55;;;9.65;;
29574;SDS011;16507;51.046;6.406;2023-07-20T06:50:49;8.30;;;7.40;;
29574;SDS011;16507;51.046;6.406;2023-07-20T06:53:14;7.85;;;7.25;;
29574;SDS011;16507;51.046;6.406;2023-07-20T06:55:41;8.88;;;8.07;;
29574;SDS011;16507;51.046;6.406;2023-07-20T06:58:07;8.95;;;7.72;;
29574;SDS011;16507;51.046;6.406;2023-07-20T07:00:33;8.00;;;7.38;;
29574;SDS011;16507;51.046;6.406;2023-07-20T07:02:59;10.20;;;8.55;;
29574;SDS011;16507;51.046;6.406;2023-07-20T07:05:25;9.65;;;8.57;;
29574;SDS011;16507;51.046;6.406;2023-07-20T07:07:50;14.82;;;9.18;;
29574;SDS011;16507;51.046;6.406;2023-07-20T07:10:16;16.13;;;9.30;;
29574;SDS011;16507;51.046;6.406;2023-07-20T07:12:43;11.02;;;9.25;;
29574;SDS011;16507;51.046;6.406;2023-07-20T07:15:09;11.52;;;8.85;;
29574;SDS011;16507;51.046;6.406;2023-07-20T07:17:35;22.02;;;9.40;;
29574;SDS011;16507;51.046;6.406;2023-07-20T07:20:01;8.13;;;7.30;;
29574;SDS011;16507;51.046;6.406;2023-07-20T07:22:28;7.88;;;6.90;;
29574;SDS011;16507;51.046;6.406;2023-07-20T07:24:54;8.93;;;7.07;;
29574;SDS011;16507;51.046;6.406;2023-07-20T07:27:20;9.90;;;5.13;;
29574;SDS011;16507;51.046;6.406;2023-07-20T07:29:45;7.95;;;5.10;;
29574;SDS011;16507;51.046;6.406;2023-07-20T07:32:11;10.50;;;4.97;;
29574;SDS011;16507;51.046;6.406;2023-07-20T07:34:37;9.68;;;5.22;;
29574;SDS011;16507;51.046;6.406;2023-07-20T07:37:04;9.90;;;7.75;;
29574;SDS011;16507;51.046;6.406;2023-07-20T07:39:30;12.20;;;9.77;;
29574;SDS011;16507;51.046;6.406;2023-07-20T07:41:56;11.80;;;10.48;;
29574;SDS011;16507;51.046;6.406;2023-07-20T07:44:22;10.90;;;9.77;;
29574;SDS011;16507;51.046;6.406;2023-07-20T07:46:48;9.73;;;8.88;;
29574;SDS011;16507;51.046;6.406;2023-07-20T07:49:14;9.93;;;8.35;;
29574;SDS011;16507;51.046;6.406;2023-07-20T07:51:40;8.90;;;7.40;;
29574;SDS011;16507;51.046;6.406;2023-07-20T07:54:06;9.52;;;6.75;;
29574;SDS011;16507;51.046;6.406;2023-07-20T07:56:32;8.52;;;6.35;;
29574;SDS011;16507;51.046;6.406;2023-07-20T07:58:57;10.38;;;6.47;;
29574;SDS011;16507;51.046;6.406;2023-07-20T08:01:23;9.40;;;5.28;;
29574;SDS011;16507;51.046;6.406;2023-07-20T08:03:49;5.15;;;4.70;;
29574;SDS011;16507;51.046;6.406;2023-07-20T08:06:14;5.60;;;5.05;;
29574;SDS011;16507;51.046;6.406;2023-07-20T08:08:40;7.72;;;5.05;;
29574;SDS011;16507;51.046;6.406;2023-07-20T08:11:07;9.38;;;5.22;;
29574;SDS011;16507;51.046;6.406;2023-07-20T08:13:33;5.97;;;4.88;;
29574;SDS011;16507;51.046;6.406;2023-07-20T08:15:59;6.30;;;5.80;;
29574;SDS011;16507;51.046;6.406;2023-07-20T08:18:28;14.57;;;7.10;;
29574;SDS011;16507;51.046;6.406;2023-07-20T08:20:54;13.98;;;5.82;;
29574;SDS011;16507;51.046;6.406;2023-07-20T08:23:19;6.10;;;5.47;;
29574;SDS011;16507;51.046;6.406;2023-07-20T08:25:45;5.63;;;5.10;;
29574;SDS011;16507;51.046;6.406;2023-07-20T08:28:15;3.92;;;3.63;;
29574;SDS011;16507;51.046;6.406;2023-07-20T08:30:47;27.15;;;4.55;;
29574;SDS011;16507;51.046;6.406;2023-07-20T08:33:14;3.78;;;3.28;;
29574;SDS011;16507;51.046;6.406;2023-07-20T08:35:44;2.70;;;2.50;;
29574;SDS011;16507;51.046;6.406;2023-07-20T08:38:10;2.42;;;2.20;;
29574;SDS011;16507;51.046;6.406;2023-07-20T08:40:39;2.47;;;2.33;;
29574;SDS011;16507;51.046;6.406;2023-07-20T08:43:06;3.60;;;2.10;;
29574;SDS011;16507;51.046;6.406;2023-07-20T08:52:16;3.93;;;3.70;;
29574;SDS011;16507;51.046;6.406;2023-07-20T08:54:42;3.42;;;3.22;;
29574;SDS011;16507;51.046;6.406;2023-07-20T08:57:08;4.57;;;3.30;;
29574;SDS011;16507;51.046;6.406;2023-07-20T08:59:37;3.28;;;2.97;;
29574;SDS011;16507;51.046;6.406;2023-07-20T09:02:03;5.97;;;2.90;;
29574;SDS011;16507;51.046;6.406;2023-07-20T09:04:30;3.70;;;2.85;;
29574;SDS011;16507;51.046;6.406;2023-07-20T09:06:56;4.78;;;2.92;;
29574;SDS011;16507;51.046;6.406;2023-07-20T09:09:22;15.18;;;2.55;;
29574;SDS011;16507;51.046;6.406;2023-07-20T09:11:51;3.45;;;2.65;;
29574;SDS011;16507;51.046;6.406;2023-07-20T09:14:16;4.90;;;1.98;;
29574;SDS011;16507;51.046;6.406;2023-07-20T09:16:48;2.20;;;2.00;;
29574;SDS011;16507;51.046;6.406;2023-07-20T09:19:15;2.33;;;2.13;;
29574;SDS011;16507;51.046;6.406;2023-07-20T09:21:43;2.35;;;2.15;;
29574;SDS011;16507;51.046;6.406;2023-07-20T09:24:11;1.88;;;1.48;;
29574;SDS011;16507;51.046;6.406;2023-07-20T09:26:40;3.63;;;1.60;;
29574;SDS011;16507;51.046;6.406;2023-07-20T09:29:07;2.20;;;1.33;;
29574;SDS011;16507;51.046;6.406;2023-07-20T09:31:34;3.22;;;1.55;;
29574;SDS011;16507;51.046;6.406;2023-07-20T09:33:59;4.03;;;1.20;;
29574;SDS011;16507;51.046;6.406;2023-07-20T09:36:28;1.00;;;1.00;;
29574;SDS011;16507;51.046;6.406;2023-07-20T09:38:54;2.65;;;1.40;;
29574;SDS011;16507;51.046;6.406;2023-07-20T09:41:20;1.10;;;1.10;;
29574;SDS011;16507;51.046;6.406;2023-07-20T09:43:46;1.80;;;1.70;;
29574;SDS011;16507;51.046;6.406;2023-07-20T09:46:12;1.55;;;1.35;;
29574;SDS011;16507;51.046;6.406;2023-07-20T09:48:38;5.47;;;1.80;;
29574;SDS011;16507;51.046;6.406;2023-07-20T09:51:04;2.53;;;1.45;;
29574;SDS011;16507;51.046;6.406;2023-07-20T09:53:32;2.00;;;1.90;;
29574;SDS011;16507;51.046;6.406;2023-07-20T09:55:58;1.83;;;1.73;;
29574;SDS011;16507;51.046;6.406;2023-07-20T09:58:25;1.92;;;1.40;;
29574;SDS011;16507;51.046;6.406;2023-07-20T10:00:52;1.00;;;0.85;;
29574;SDS011;16507;51.046;6.406;2023-07-20T10:03:22;1.00;;;1.00;;
29574;SDS011;16507;51.046;6.406;2023-07-20T10:05:57;7.25;;;1.38;;
29574;SDS011;16507;51.046;6.406;2023-07-20T10:08:25;5.28;;;1.33;;
29574;SDS011;16507;51.046;6.406;2023-07-20T10:10:52;2.40;;;1.05;;
29574;SDS011;16507;51.046;6.406;2023-07-20T10:13:18;2.45;;;1.25;;
29574;SDS011;16507;51.046;6.406;2023-07-20T10:16:01;1.70;;;1.60;;
29574;SDS011;16507;51.046;6.406;2023-07-20T10:21:18;3.00;;;1.33;;
29574;SDS011;16507;51.046;6.406;2023-07-20T10:23:45;2.35;;;1.20;;
29574;SDS011;16507;51.046;6.406;2023-07-20T10:26:11;1.10;;;1.00;;
29574;SDS011;16507;51.046;6.406;2023-07-20T10:28:38;1.70;;;1.00;;
29574;SDS011;16507;51.046;6.406;2023-07-20T10:31:04;5.03;;;0.93;;
29574;SDS011;16507;51.046;6.406;2023-07-20T10:33:32;0.68;;;0.68;;
29574;SDS011;16507;51.046;6.406;2023-07-20T10:36:02;0.98;;;0.60;;
29574;SDS011;16507;51.046;6.406;2023-07-20T10:44:03;0.98;;;0.80;;
29574;SDS011;16507;51.046;6.406;2023-07-20T10:49:05;2.10;;;0.98;;
29574;SDS011;16507;51.046;6.406;2023-07-20T10:51:44;5.13;;;1.02;;
29574;SDS011;16507;51.046;6.406;2023-07-20T10:56:43;2.58;;;0.70;;
29574;SDS011;16507;51.046;6.406;2023-07-20T11:01:59;6.55;;;1.08;;
29574;SDS011;16507;51.046;6.406;2023-07-20T11:04:43;2.03;;;0.70;;
29574;SDS011;16507;51.046;6.406;2023-07-20T11:07:14;1.65;;;0.77;;
29574;SDS011;16507;51.046;6.406;2023-07-20T11:09:42;2.42;;;0.60;;
29574;SDS011;16507;51.046;6.406;2023-07-20T11:14:42;3.88;;;0.57;;
29574;SDS011;16507;51.046;6.406;2023-07-20T11:17:11;4.53;;;0.80;;
29574;SDS011;16507;51.046;6.406;2023-07-20T11:19:45;1.75;;;0.68;;
29574;SDS011;16507;51.046;6.406;2023-07-20T11:22:13;1.55;;;0.50;;
29574;SDS011;16507;51.046;6.406;2023-07-20T11:24:42;0.60;;;0.60;;
29574;SDS011;16507;51.046;6.406;2023-07-20T11:27:08;0.73;;;0.70;;
29574;SDS011;16507;51.046;6.406;2023-07-20T11:29:34;1.15;;;0.70;;
29574;SDS011;16507;51.046;6.406;2023-07-20T11:32:00;0.63;;;0.60;;
29574;SDS011;16507;51.046;6.406;2023-07-20T11:34:29;1.55;;;0.60;;
29574;SDS011;16507;51.046;6.406;2023-07-20T11:36:55;0.55;;;0.40;;
29574;SDS011;16507;51.046;6.406;2023-07-20T11:39:22;2.35;;;0.70;;
29574;SDS011;16507;51.046;6.406;2023-07-20T11:41:53;0.55;;;0.55;;
29574;SDS011;16507;51.046;6.406;2023-07-20T11:44:23;1.10;;;0.82;;
29574;SDS011;16507;51.046;6.406;2023-07-20T11:47:05;0.50;;;0.50;;
29574;SDS011;16507;51.046;6.406;2023-07-20T11:49:35;0.73;;;0.70;;
29574;SDS011;16507;51.046;6.406;2023-07-20T11:52:09;0.68;;;0.50;;
29574;SDS011;16507;51.046;6.406;2023-07-20T11:54:37;0.68;;;0.60;;
29574;SDS011;16507;51.046;6.406;2023-07-20T11:57:04;0.60;;;0.60;;
29574;SDS011;16507;51.046;6.406;2023-07-20T11:59:30;1.08;;;0.57;;
29574;SDS011;16507;51.046;6.406;2023-07-20T12:01:56;5.25;;;0.90;;
29574;SDS011;16507;51.046;6.406;2023-07-20T12:04:23;3.03;;;0.63;;
29574;SDS011;16507;51.046;6.406;2023-07-20T12:06:49;1.58;;;0.65;;
29574;SDS011;16507;51.046;6.406;2023-07-20T12:09:16;0.47;;;0.47;;
29574;SDS011;16507;51.046;6.406;2023-07-20T12:11:42;2.00;;;0.60;;
29574;SDS011;16507;51.046;6.406;2023-07-20T12:14:12;6.25;;;0.77;;
29574;SDS011;16507;51.046;6.406;2023-07-20T12:16:38;1.00;;;0.43;;
29574;SDS011;16507;51.046;6.406;2023-07-20T12:21:37;0.80;;;0.60;;
29574;SDS011;16507;51.046;6.406;2023-07-20T12:24:05;0.63;;;0.50;;
29574;SDS011;16507;51.046;6.406;2023-07-20T12:26:32;6.82;;;0.70;;
29574;SDS011;16507;51.046;6.406;2023-07-20T12:28:59;0.98;;;0.40;;
29574;SDS011;16507;51.046;6.406;2023-07-20T12:31:25;3.80;;;0.70;;
29574;SDS011;16507;51.046;6.406;2023-07-20T12:33:52;2.08;;;0.80;;
29574;SDS011;16507;51.046;6.406;2023-07-20T12:36:20;0.68;;;0.55;;
29574;SDS011;16507;51.046;6.406;2023-07-20T12:38:46;3.35;;;0.65;;
29574;SDS011;16507;51.046;6.406;2023-07-20T12:41:12;0.90;;;0.60;;
29574;SDS011;16507;51.046;6.406;2023-07-20T12:43:39;6.43;;;0.80;;
29574;SDS011;16507;51.046;6.406;2023-07-20T12:46:09;4.03;;;0.70;;
29574;SDS011;16507;51.046;6.406;2023-07-20T12:48:37;2.25;;;0.52;;
29574;SDS011;16507;51.046;6.406;2023-07-20T12:51:05;3.35;;;0.80;;
29574;SDS011;16507;51.046;6.406;2023-07-20T12:53:31;0.60;;;0.55;;
29574;SDS011;16507;51.046;6.406;2023-07-20T12:55:57;0.80;;;0.80;;
29574;SDS011;16507;51.046;6.406;2023-07-20T12:58:23;2.15;;;0.60;;
29574;SDS011;16507;51.046;6.406;2023-07-20T13:00:49;3.55;;;0.93;;
29574;SDS011;16507;51.046;6.406;2023-07-20T13:03:15;3.97;;;0.50;;
29574;SDS011;16507;51.046;6.406;2023-07-20T13:05:43;1.42;;;0.63;;
29574;SDS011;16507;51.046;6.406;2023-07-20T13:08:09;3.53;;;0.60;;
29574;SDS011;16507;51.046;6.406;2023-07-20T13:10:34;1.40;;;0.55;;
29574;SDS011;16507;51.046;6.406;2023-07-20T13:13:00;12.40;;;1.10;;
29574;SDS011;16507;51.046;6.406;2023-07-20T13:15:30;5.70;;;0.70;;
29574;SDS011;16507;51.046;6.406;2023-07-20T13:17:59;1.55;;;0.70;;
29574;SDS011;16507;51.046;6.406;2023-07-20T13:20:25;0.77;;;0.47;;
29574;SDS011;16507;51.046;6.406;2023-07-20T13:22:53;1.25;;;0.50;;
29574;SDS011;16507;51.046;6.406;2023-07-20T13:25:18;2.97;;;0.70;;
29574;SDS011;16507;51.046;6.406;2023-07-20T13:27:44;3.92;;;0.80;;
29574;SDS011;16507;51.046;6.406;2023-07-20T13:30:10;0.60;;;0.60;;
29574;SDS011;16507;51.046;6.406;2023-07-20T13:32:41;1.13;;;0.70;;
29574;SDS011;16507;51.046;6.406;2023-07-20T13:35:13;1.27;;;0.60;;
29574;SDS011;16507;51.046;6.406;2023-07-20T13:37:39;1.05;;;0.75;;
29574;SDS011;16507;51.046;6.406;2023-07-20T13:40:06;1.83;;;0.50;;
29574;SDS011;16507;51.046;6.406;2023-07-20T13:42:38;3.67;;;0.80;;
29574;SDS011;16507;51.046;6.406;2023-07-20T13:45:05;3.38;;;0.60;;
29574;SDS011;16507;51.046;6.406;2023-07-20T13:47:31;2.83;;;0.70;;
29574;SDS011;16507;51.046;6.406;2023-07-20T13:49:57;4.18;;;0.70;;
29574;SDS011;16507;51.046;6.406;2023-07-20T13:52:22;3.63;;;0.80;;
29574;SDS011;16507;51.046;6.406;2023-07-20T13:54:48;0.70;;;0.70;;
29574;SDS011;16507;51.046;6.406;2023-07-20T13:57:14;4.75;;;1.10;;
29574;SDS011;16507;51.046;6.406;2023-07-20T13:59:40;3.90;;;1.00;;
29574;SDS011;16507;51.046;6.406;2023-07-20T14:02:06;0.95;;;0.80;;
29574;SDS011;16507;51.046;6.406;2023-07-20T14:04:32;3.33;;;0.80;;
29574;SDS011;16507;51.046;6.406;2023-07-20T14:06:57;1.95;;;0.70;;
29574;SDS011;16507;51.046;6.406;2023-07-20T14:09:23;0.75;;;0.65;;
29574;SDS011;16507;51.046;6.406;2023-07-20T14:11:49;6.47;;;1.25;;
29574;SDS011;16507;51.046;6.406;2023-07-20T14:14:14;1.48;;;0.60;;
29574;SDS011;16507;51.046;6.406;2023-07-20T14:16:40;2.67;;;0.65;;
29574;SDS011;16507;51.046;6.406;2023-07-20T14:19:06;3.40;;;0.80;;
29574;SDS011;16507;51.046;6.406;2023-07-20T14:21:32;2.20;;;0.70;;
29574;SDS011;16507;51.046;6.406;2023-07-20T14:23:58;0.90;;;0.70;;
29574;SDS011;16507;51.046;6.406;2023-07-20T14:26:24;2.42;;;0.70;;
29574;SDS011;16507;51.046;6.406;2023-07-20T14:28:49;0.60;;;0.57;;
29574;SDS011;16507;51.046;6.406;2023-07-20T14:31:15;6.00;;;0.73;;
29574;SDS011;16507;51.046;6.406;2023-07-20T14:33:41;3.30;;;0.90;;
29574;SDS011;16507;51.046;6.406;2023-07-20T14:36:09;1.95;;;0.60;;
29574;SDS011;16507;51.046;6.406;2023-07-20T14:38:35;0.77;;;0.40;;
29574;SDS011;16507;51.046;6.406;2023-07-20T14:41:01;2.38;;;0.40;;
29574;SDS011;16507;51.046;6.406;2023-07-20T14:43:27;2.78;;;1.20;;
29574;SDS011;16507;51.046;6.406;2023-07-20T14:45:52;3.38;;;0.90;;
29574;SDS011;16507;51.046;6.406;2023-07-20T14:48:20;1.67;;;0.57;;
29574;SDS011;16507;51.046;6.406;2023-07-20T14:50:52;4.53;;;0.90;;
29574;SDS011;16507;51.046;6.406;2023-07-20T14:53:20;15.38;;;1.00;;
29574;SDS011;16507;51.046;6.406;2023-07-20T14:55:45;6.63;;;0.68;;
29574;SDS011;16507;51.046;6.406;2023-07-20T14:58:11;3.65;;;0.60;;
29574;SDS011;16507;51.046;6.406;2023-07-20T15:00:37;1.67;;;0.63;;
29574;SDS011;16507;51.046;6.406;2023-07-20T15:03:03;1.50;;;0.60;;
29574;SDS011;16507;51.046;6.406;2023-07-20T15:05:29;2.30;;;0.68;;
29574;SDS011;16507;51.046;6.406;2023-07-20T15:07:55;1.65;;;0.60;;
29574;SDS011;16507;51.046;6.406;2023-07-20T15:10:20;0.98;;;0.50;;
29574;SDS011;16507;51.046;6.406;2023-07-20T15:12:47;0.63;;;0.50;;
29574;SDS011;16507;51.046;6.406;2023-07-20T15:15:13;2.10;;;0.50;;
29574;SDS011;16507;51.046;6.406;2023-07-20T15:17:39;3.90;;;0.57;;